createdAt,value
2023-05-19T00:01:17.476Z,13.10
2023-05-19T00:03:58.138Z,13.30
2023-05-19T00:06:28.040Z,13.52
2023-05-19T00:09:05.828Z,16.00
2023-05-19T00:11:36.856Z,10.77
2023-05-19T00:14:07.355Z,10.75
2023-05-19T00:16:36.601Z,11.18
2023-05-19T00:19:06.496Z,13.00
2023-05-19T00:21:34.909Z,9.13
2023-05-19T00:24:02.671Z,12.20
2023-05-19T00:26:30.769Z,13.25
2023-05-19T00:29:06.813Z,12.13
2023-05-19T00:31:35.023Z,7.70
2023-05-19T00:34:03.284Z,7.77
2023-05-19T00:36:31.473Z,7.57
2023-05-19T00:38:59.679Z,8.50
2023-05-19T00:41:29.051Z,11.88
2023-05-19T00:43:57.067Z,8.20
2023-05-19T00:46:25.727Z,9.03
2023-05-19T00:48:53.667Z,8.68
2023-05-19T00:51:23.268Z,9.13
2023-05-19T00:53:52.542Z,9.30
2023-05-19T00:56:22.360Z,8.75
2023-05-19T00:58:52.268Z,8.90
2023-05-19T01:01:21.989Z,9.60
2023-05-19T01:03:52.043Z,8.10
2023-05-19T01:06:21.147Z,8.20
2023-05-19T01:08:52.100Z,8.88
2023-05-19T01:11:20.218Z,11.33
2023-05-19T01:13:48.324Z,8.98
2023-05-19T01:16:52.306Z,9.13
2023-05-19T01:19:56.604Z,8.80
2023-05-19T01:22:55.551Z,8.73
2023-05-19T01:26:09.540Z,6.70
2023-05-19T01:29:07.659Z,15.18
2023-05-19T01:31:38.910Z,9.48
2023-05-19T01:34:08.618Z,9.15
2023-05-19T01:36:37.735Z,10.63
2023-05-19T01:39:08.369Z,10.30
2023-05-19T01:41:37.800Z,12.60
2023-05-19T01:44:05.847Z,9.02
2023-05-19T01:46:34.965Z,8.45
2023-05-19T01:49:05.458Z,7.57
2023-05-19T01:51:33.629Z,9.83
2023-05-19T01:54:02.672Z,15.07
2023-05-19T01:56:47.189Z,10.85
2023-05-19T01:59:34.436Z,9.82
2023-05-19T02:02:09.849Z,12.68
2023-05-19T02:04:50.984Z,12.50
2023-05-19T02:07:42.406Z,8.93
2023-05-19T02:10:20.088Z,9.57
2023-05-19T02:12:51.518Z,9.15
2023-05-19T02:15:27.031Z,13.48
2023-05-19T02:17:58.435Z,12.83
2023-05-19T02:20:26.549Z,8.70
2023-05-19T02:22:54.508Z,13.02
2023-05-19T02:25:23.989Z,11.85
2023-05-19T02:27:53.063Z,11.77
2023-05-19T02:30:21.002Z,9.90
2023-05-19T02:32:49.048Z,13.82
2023-05-19T02:35:17.216Z,14.05
2023-05-19T02:37:45.804Z,10.32
2023-05-19T02:40:13.754Z,10.23
2023-05-19T02:42:42.064Z,10.73
2023-05-19T02:45:10.766Z,11.85
2023-05-19T02:47:41.995Z,14.20
2023-05-19T02:50:10.319Z,11.50
2023-05-19T02:52:38.474Z,12.43
2023-05-19T02:55:07.015Z,11.70
2023-05-19T02:57:35.638Z,11.70
2023-05-19T03:00:03.852Z,9.82
2023-05-19T03:02:33.660Z,11.13
2023-05-19T03:05:03.697Z,12.35
2023-05-19T03:07:31.691Z,15.07
2023-05-19T03:09:59.880Z,13.93
2023-05-19T03:12:27.916Z,12.43
2023-05-19T03:14:56.111Z,10.90
2023-05-19T03:17:24.236Z,10.88
2023-05-19T03:19:52.482Z,15.77
2023-05-19T03:22:21.764Z,11.40
2023-05-19T03:24:51.676Z,10.60
2023-05-19T03:27:19.910Z,16.73
2023-05-19T03:29:47.769Z,13.98
2023-05-19T03:32:16.065Z,12.03
2023-05-19T03:34:44.273Z,12.80
2023-05-19T03:37:13.312Z,7.72
2023-05-19T03:39:41.921Z,9.02
2023-05-19T03:42:10.099Z,8.23
2023-05-19T03:44:38.167Z,10.50
2023-05-19T03:47:07.993Z,8.45
2023-05-19T03:50:03.377Z,8.55
2023-05-19T03:53:04.005Z,10.80
2023-05-19T03:55:40.064Z,8.95
2023-05-19T03:58:08.214Z,9.93
2023-05-19T04:00:37.822Z,8.85
2023-05-19T04:03:06.010Z,8.68
2023-05-19T04:05:35.456Z,11.32
2023-05-19T04:08:03.347Z,11.23
2023-05-19T04:10:31.757Z,11.53
2023-05-19T04:12:59.781Z,12.85
2023-05-19T04:15:27.677Z,16.00
2023-05-19T04:17:57.299Z,19.52
2023-05-19T04:20:25.209Z,18.33
2023-05-19T04:22:53.215Z,17.70
2023-05-19T04:25:21.064Z,19.75
2023-05-19T04:27:49.676Z,20.52
2023-05-19T04:30:22.728Z,15.57
2023-05-19T04:32:51.673Z,14.57
2023-05-19T04:35:19.843Z,13.27
2023-05-19T04:37:49.089Z,12.13
2023-05-19T04:40:24.217Z,14.95
2023-05-19T04:42:54.629Z,9.60
2023-05-19T04:45:24.152Z,8.68
2023-05-19T04:47:58.204Z,7.97
2023-05-19T04:50:26.622Z,8.50
2023-05-19T04:52:54.829Z,7.95
2023-05-19T04:55:23.517Z,7.00
2023-05-19T04:57:51.491Z,7.80
2023-05-19T05:00:22.001Z,11.23
2023-05-19T05:02:59.992Z,8.00
2023-05-19T05:05:30.866Z,9.35
2023-05-19T05:07:59.271Z,17.33
2023-05-19T05:10:30.222Z,11.63
2023-05-19T05:12:59.036Z,9.30
2023-05-19T05:15:29.139Z,11.07
2023-05-19T05:18:00.013Z,13.48
2023-05-19T05:20:28.589Z,13.18
2023-05-19T05:22:58.284Z,12.35
2023-05-19T05:25:28.132Z,13.40
2023-05-19T05:27:56.213Z,11.65
2023-05-19T05:30:24.621Z,13.68
2023-05-19T05:32:54.064Z,9.20
2023-05-19T05:35:34.921Z,8.65
2023-05-19T05:38:04.090Z,14.00
2023-05-19T05:40:32.203Z,13.20
2023-05-19T05:43:00.446Z,12.98
2023-05-19T05:45:32.384Z,12.75
2023-05-19T05:48:02.662Z,11.80
2023-05-19T05:50:35.502Z,11.87
2023-05-19T05:53:07.810Z,13.07
2023-05-19T05:55:38.947Z,13.73
2023-05-19T05:58:11.630Z,13.65
2023-05-19T06:00:39.951Z,15.77
2023-05-19T06:03:08.855Z,15.50
2023-05-19T06:05:37.699Z,17.33
2023-05-19T06:08:06.202Z,20.73
2023-05-19T06:10:36.011Z,16.85
2023-05-19T06:13:07.754Z,20.02
2023-05-19T06:15:38.723Z,13.47
2023-05-19T06:18:17.118Z,16.90
2023-05-19T06:20:48.056Z,20.17
2023-05-19T06:23:16.255Z,16.00
2023-05-19T06:25:44.438Z,14.52
2023-05-19T06:28:13.043Z,15.87
2023-05-19T06:30:41.555Z,12.48
2023-05-19T06:33:20.570Z,13.93
2023-05-19T06:35:48.686Z,16.70
2023-05-19T06:38:20.654Z,15.82
2023-05-19T06:40:49.360Z,14.00
2023-05-19T06:43:17.449Z,11.93
2023-05-19T06:45:59.776Z,13.15
2023-05-19T06:48:27.724Z,17.55
2023-05-19T06:50:56.406Z,14.77
2023-05-19T06:53:25.561Z,14.13
2023-05-19T06:55:59.970Z,11.68
2023-05-19T06:58:33.565Z,14.90
2023-05-19T07:01:04.726Z,11.05
2023-05-19T07:03:38.175Z,12.80
2023-05-19T07:06:08.134Z,11.83
2023-05-19T07:08:37.580Z,11.90
2023-05-19T07:11:08.070Z,9.63
2023-05-19T07:13:39.521Z,16.20
2023-05-19T07:16:08.292Z,13.52
2023-05-19T07:18:36.201Z,10.23
2023-05-19T07:21:04.375Z,12.25
2023-05-19T07:23:33.011Z,15.80
2023-05-19T07:26:01.281Z,17.75
2023-05-19T07:28:29.414Z,13.48
2023-05-19T07:30:57.257Z,11.57
2023-05-19T07:33:27.335Z,10.90
2023-05-19T07:35:55.747Z,14.27
2023-05-19T07:38:23.786Z,11.57
2023-05-19T07:40:51.770Z,16.52
2023-05-19T07:43:19.542Z,14.30
2023-05-19T07:45:47.596Z,15.25
2023-05-19T07:48:15.574Z,11.48
2023-05-19T07:50:47.108Z,12.43
2023-05-19T07:53:17.139Z,16.77
2023-05-19T07:55:45.057Z,10.03
2023-05-19T07:58:16.905Z,12.15
2023-05-19T08:00:46.533Z,13.93
2023-05-19T08:03:18.344Z,14.35
2023-05-19T08:05:47.552Z,13.70
2023-05-19T08:08:17.128Z,11.50
2023-05-19T08:10:45.167Z,12.93
2023-05-19T08:13:12.912Z,16.70
2023-05-19T08:15:41.750Z,18.08
2023-05-19T08:18:09.903Z,15.55
2023-05-19T08:20:37.985Z,18.73
2023-05-19T08:23:06.202Z,12.57
2023-05-19T08:25:34.169Z,10.75
2023-05-19T08:28:02.187Z,13.43
2023-05-19T08:30:30.414Z,16.17
2023-05-19T08:32:58.846Z,14.70
2023-05-19T08:35:26.829Z,11.63
2023-05-19T08:37:54.676Z,17.73
2023-05-19T08:40:23.774Z,15.13
2023-05-19T08:42:51.663Z,12.43
2023-05-19T08:45:19.770Z,14.40
2023-05-19T08:47:48.142Z,12.07
2023-05-19T08:50:25.272Z,11.05
2023-05-19T08:53:33.668Z,11.73
2023-05-19T08:56:11.738Z,11.55
2023-05-19T08:58:41.844Z,15.50
2023-05-19T09:01:14.474Z,11.82
2023-05-19T09:03:43.813Z,13.13
2023-05-19T09:06:17.861Z,13.68
2023-05-19T09:08:47.493Z,11.63
2023-05-19T09:11:15.464Z,15.10
2023-05-19T09:13:44.441Z,15.52
2023-05-19T09:16:13.727Z,13.43
2023-05-19T09:18:55.405Z,11.10
2023-05-19T09:21:32.976Z,13.65
2023-05-19T09:24:08.211Z,14.13
2023-05-19T09:26:39.452Z,12.48
2023-05-19T09:29:14.270Z,12.20
2023-05-19T09:31:52.845Z,16.92
2023-05-19T09:34:22.724Z,15.15
2023-05-19T09:36:52.080Z,10.37
2023-05-19T09:39:21.339Z,9.75
2023-05-19T09:41:54.202Z,13.10
2023-05-19T09:44:30.815Z,14.05
2023-05-19T09:47:01.014Z,14.75
2023-05-19T09:49:33.348Z,15.63
2023-05-19T09:52:04.644Z,13.52
2023-05-19T09:54:35.016Z,10.95
2023-05-19T09:57:05.214Z,13.00
2023-05-19T09:59:35.300Z,12.57
2023-05-19T10:02:04.275Z,13.63
2023-05-19T10:04:32.676Z,14.63
2023-05-19T10:07:01.749Z,12.13
2023-05-19T10:09:30.557Z,11.88
2023-05-19T10:11:59.652Z,15.82
2023-05-19T10:14:29.903Z,10.73
2023-05-19T10:16:59.463Z,12.63
2023-05-19T10:19:28.946Z,12.63
2023-05-19T10:21:57.300Z,10.65
2023-05-19T10:24:25.638Z,11.25
2023-05-19T10:27:10.729Z,15.83
2023-05-19T10:29:48.505Z,14.07
2023-05-19T10:32:22.056Z,15.07
2023-05-19T10:35:32.555Z,14.30
2023-05-19T10:38:27.186Z,13.38
2023-05-19T10:41:21.870Z,14.63
2023-05-19T10:44:14.864Z,13.55
2023-05-19T10:46:43.804Z,10.48
2023-05-19T10:49:20.334Z,10.75
2023-05-19T10:51:48.469Z,11.98
2023-05-19T10:54:17.757Z,12.33
2023-05-19T10:56:49.039Z,12.73
2023-05-19T10:59:38.404Z,13.45
2023-05-19T11:02:09.800Z,13.52
2023-05-19T11:04:54.641Z,12.52
2023-05-19T11:07:22.840Z,13.47
2023-05-19T11:09:54.396Z,10.50
2023-05-19T11:12:24.707Z,10.80
2023-05-19T11:14:56.104Z,10.73
2023-05-19T11:17:26.022Z,14.90
2023-05-19T11:19:56.212Z,12.67
2023-05-19T11:22:30.205Z,11.65
2023-05-19T11:24:58.334Z,12.05
2023-05-19T11:27:33.237Z,14.27
2023-05-19T11:30:09.685Z,14.45
2023-05-19T11:32:43.098Z,15.43
2023-05-19T11:35:11.499Z,13.57
2023-05-19T11:37:41.857Z,10.45
2023-05-19T11:40:10.154Z,10.38
2023-05-19T11:42:38.488Z,10.27
2023-05-19T11:45:07.537Z,10.13
2023-05-19T11:47:46.014Z,10.55
2023-05-19T11:50:24.004Z,13.90
2023-05-19T11:52:56.543Z,13.02
2023-05-19T11:55:25.561Z,9.27
2023-05-19T11:58:05.577Z,11.80
2023-05-19T12:00:41.644Z,12.07
2023-05-19T12:03:10.460Z,12.20
2023-05-19T12:05:43.719Z,9.90
2023-05-19T12:08:13.157Z,9.73
2023-05-19T12:10:41.766Z,11.87
2023-05-19T12:13:10.323Z,9.93
2023-05-19T12:15:39.502Z,15.77
2023-05-19T12:18:07.912Z,9.80
2023-05-19T12:20:36.559Z,14.18
2023-05-19T12:23:07.066Z,10.23
2023-05-19T12:25:35.532Z,9.30
2023-05-19T12:28:04.004Z,11.63
2023-05-19T12:30:33.983Z,10.60
2023-05-19T12:33:03.803Z,12.35
2023-05-19T12:35:34.401Z,10.23
2023-05-19T12:38:06.957Z,12.30
2023-05-19T12:40:36.485Z,12.32
2023-05-19T12:43:05.812Z,12.50
2023-05-19T12:45:37.601Z,13.00
2023-05-19T12:48:11.600Z,16.93
2023-05-19T12:50:39.843Z,7.32
2023-05-19T12:53:13.480Z,9.00
2023-05-19T12:55:43.801Z,8.55
2023-05-19T12:58:16.453Z,7.63
2023-05-19T13:00:47.685Z,8.80
2023-05-19T13:03:18.613Z,8.73
2023-05-19T13:05:51.548Z,9.20
2023-05-19T13:08:22.935Z,10.50
2023-05-19T13:10:51.389Z,9.00
2023-05-19T13:13:19.694Z,8.67
2023-05-19T13:15:51.078Z,11.30
2023-05-19T13:18:19.152Z,10.27
2023-05-19T13:20:47.889Z,7.90
2023-05-19T13:23:16.339Z,8.68
2023-05-19T13:25:44.561Z,6.67
2023-05-19T13:28:13.195Z,7.00
2023-05-19T13:30:44.131Z,11.38
2023-05-19T13:33:12.336Z,9.93
2023-05-19T13:35:41.764Z,8.30
2023-05-19T13:38:11.036Z,8.27
2023-05-19T13:40:40.288Z,7.18
2023-05-19T13:43:09.285Z,7.97
2023-05-19T13:45:37.854Z,8.75
2023-05-19T13:48:07.932Z,9.50
2023-05-19T13:50:36.024Z,7.17
2023-05-19T13:53:04.718Z,7.15
2023-05-19T13:55:35.879Z,10.00
2023-05-19T13:58:04.190Z,8.48
2023-05-19T14:00:33.098Z,7.05
2023-05-19T14:03:01.400Z,8.57
2023-05-19T14:05:29.582Z,8.18
2023-05-19T14:07:58.470Z,7.18
2023-05-19T14:10:26.396Z,8.88
2023-05-19T14:13:20.293Z,11.60
2023-05-19T14:15:42.589Z,9.07
2023-05-19T14:18:10.597Z,9.02
2023-05-19T14:20:38.863Z,9.35
2023-05-19T14:23:06.842Z,7.85
2023-05-19T14:25:35.076Z,8.18
2023-05-19T14:28:03.093Z,8.47
2023-05-19T14:30:31.711Z,10.98
2023-05-19T14:33:00.214Z,7.95
2023-05-19T14:35:28.199Z,8.32
2023-05-19T14:37:56.216Z,7.03
2023-05-19T14:40:24.253Z,8.70
2023-05-19T14:42:51.977Z,9.70
2023-05-19T14:45:20.012Z,10.57
2023-05-19T14:47:48.157Z,8.57
2023-05-19T14:50:16.392Z,8.00
2023-05-19T14:52:44.423Z,11.00
2023-05-19T14:55:12.465Z,12.05
2023-05-19T14:57:40.419Z,6.80
2023-05-19T15:00:11.964Z,5.90
2023-05-19T15:02:39.954Z,6.95
2023-05-19T15:05:08.199Z,9.23
2023-05-19T15:07:36.597Z,9.77
2023-05-19T15:10:04.947Z,8.73
2023-05-19T15:12:33.054Z,10.02
2023-05-19T15:15:01.234Z,10.32
2023-05-19T15:17:29.198Z,8.57
2023-05-19T15:19:57.206Z,7.85
2023-05-19T15:22:25.137Z,9.77
2023-05-19T15:24:52.993Z,10.15
2023-05-19T15:27:21.492Z,12.68
2023-05-19T15:29:49.436Z,10.77
2023-05-19T15:32:17.354Z,13.38
2023-05-19T15:34:45.470Z,6.90
2023-05-19T15:37:13.516Z,7.82
2023-05-19T15:39:41.566Z,7.13
2023-05-19T15:42:09.438Z,6.30
2023-05-19T15:44:37.510Z,5.93
2023-05-19T15:47:05.763Z,6.03
2023-05-19T15:49:33.630Z,6.65
2023-05-19T15:52:01.677Z,7.95
2023-05-19T15:54:29.798Z,4.30
2023-05-19T15:56:57.899Z,7.50
2023-05-19T15:59:25.859Z,10.27
2023-05-19T16:01:53.739Z,12.40
2023-05-19T16:04:24.608Z,8.07
2023-05-19T16:06:52.798Z,8.87
2023-05-19T16:09:20.870Z,10.65
2023-05-19T16:11:48.891Z,6.85
2023-05-19T16:14:16.760Z,9.23
2023-05-19T16:16:45.394Z,6.47
2023-05-19T16:19:13.600Z,8.70
2023-05-19T16:21:41.892Z,9.38
2023-05-19T16:24:09.796Z,6.32
2023-05-19T16:26:37.856Z,7.90
2023-05-19T16:29:05.923Z,7.53
2023-05-19T16:31:34.236Z,9.67
2023-05-19T16:34:02.295Z,8.57
2023-05-19T16:36:30.400Z,10.80
2023-05-19T16:38:58.330Z,9.27
2023-05-19T16:41:27.104Z,8.55
2023-05-19T16:43:55.522Z,7.43
2023-05-19T16:46:23.743Z,9.93
2023-05-19T16:48:51.949Z,5.28
2023-05-19T16:51:19.932Z,7.15
2023-05-19T16:53:47.917Z,6.57
2023-05-19T16:56:16.047Z,4.07
2023-05-19T16:58:44.111Z,6.10
2023-05-19T17:01:12.420Z,6.32
2023-05-19T17:03:40.339Z,6.57
2023-05-19T17:06:08.721Z,7.88
2023-05-19T17:08:36.670Z,5.73
2023-05-19T17:11:06.659Z,7.28
2023-05-19T17:13:36.688Z,10.38
2023-05-19T17:16:04.689Z,10.48
2023-05-19T17:18:32.722Z,7.47
2023-05-19T17:21:04.192Z,9.93
2023-05-19T17:23:32.949Z,6.30
2023-05-19T17:26:00.944Z,7.28
2023-05-19T17:28:29.054Z,6.25
2023-05-19T17:30:57.130Z,6.97
2023-05-19T17:33:25.208Z,8.50
2023-05-19T17:35:53.187Z,7.15
2023-05-19T17:38:21.078Z,7.82
2023-05-19T17:40:49.126Z,6.32
2023-05-19T17:43:17.294Z,7.97
2023-05-19T17:45:47.980Z,10.30
2023-05-19T17:48:16.453Z,6.05
2023-05-19T17:50:47.100Z,8.48
2023-05-19T17:53:18.934Z,7.15
2023-05-19T17:55:52.414Z,6.82
2023-05-19T17:58:20.744Z,7.97
2023-05-19T18:00:48.737Z,7.45
2023-05-19T18:03:17.120Z,10.13
2023-05-19T18:05:45.915Z,7.60
2023-05-19T18:08:15.237Z,7.32
2023-05-19T18:10:44.401Z,8.10
2023-05-19T18:13:15.541Z,8.80
2023-05-19T18:15:43.783Z,7.35
2023-05-19T18:18:12.139Z,7.05
2023-05-19T18:20:41.722Z,9.75
2023-05-19T18:23:09.843Z,6.40
2023-05-19T18:25:38.335Z,5.93
2023-05-19T18:28:06.401Z,7.43
2023-05-19T18:30:34.744Z,8.70
2023-05-19T18:33:04.237Z,6.05
2023-05-19T18:35:32.230Z,7.30
2023-05-19T18:38:00.190Z,6.83
2023-05-19T18:40:28.170Z,7.40
2023-05-19T18:42:56.133Z,8.48
2023-05-19T18:45:24.186Z,9.02
2023-05-19T18:47:52.098Z,8.98
2023-05-19T18:50:21.116Z,7.60
2023-05-19T18:52:49.394Z,5.80
2023-05-19T18:55:17.637Z,8.77
2023-05-19T18:57:46.546Z,4.65
2023-05-19T19:00:15.187Z,5.35
2023-05-19T19:02:43.259Z,4.97
2023-05-19T19:05:11.462Z,8.27
2023-05-19T19:07:43.669Z,8.25
2023-05-19T19:10:12.902Z,7.68
2023-05-19T19:12:40.747Z,8.02
2023-05-19T19:15:09.528Z,9.47
2023-05-19T19:17:38.184Z,6.65
2023-05-19T19:20:07.864Z,8.65
2023-05-19T19:22:35.841Z,9.43
2023-05-19T19:25:04.160Z,5.68
2023-05-19T19:27:32.434Z,7.83
2023-05-19T19:30:00.520Z,9.95
2023-05-19T19:32:28.534Z,11.38
2023-05-19T19:34:56.661Z,7.22
2023-05-19T19:37:24.629Z,7.10
2023-05-19T19:39:52.940Z,9.47
2023-05-19T19:42:20.846Z,8.85
2023-05-19T19:44:48.921Z,7.78
2023-05-19T19:47:16.910Z,5.38
2023-05-19T19:49:46.663Z,8.27
2023-05-19T19:52:14.609Z,8.30
2023-05-19T19:54:43.706Z,6.38
2023-05-19T19:57:11.740Z,5.78
2023-05-19T19:59:39.839Z,8.80
2023-05-19T20:02:08.031Z,5.15
2023-05-19T20:04:36.053Z,5.47
2023-05-19T20:07:04.075Z,4.57
2023-05-19T20:09:32.380Z,6.57
2023-05-19T20:12:00.373Z,4.10
2023-05-19T20:14:28.255Z,7.15
2023-05-19T20:16:56.285Z,4.27
2023-05-19T20:19:29.073Z,7.00
2023-05-19T20:21:57.203Z,7.63
2023-05-19T20:24:25.136Z,3.55
2023-05-19T20:26:53.021Z,9.35
2023-05-19T20:29:24.472Z,6.07
2023-05-19T20:31:52.291Z,8.60
2023-05-19T20:34:20.662Z,5.13
2023-05-19T20:36:48.819Z,5.40
2023-05-19T20:39:16.846Z,4.60
2023-05-19T20:41:44.955Z,6.10
2023-05-19T20:44:13.211Z,6.03
2023-05-19T20:46:41.526Z,4.45
2023-05-19T20:49:09.656Z,5.35
2023-05-19T20:51:37.709Z,4.72
2023-05-19T20:54:07.642Z,5.10
2023-05-19T20:56:35.798Z,4.88
2023-05-19T20:59:04.502Z,5.28
2023-05-19T21:01:32.689Z,8.50
2023-05-19T21:04:07.028Z,5.82
2023-05-19T21:06:35.336Z,5.13
2023-05-19T21:09:05.730Z,6.03
2023-05-19T21:11:35.173Z,6.05
2023-05-19T21:14:06.118Z,7.30
2023-05-19T21:16:34.556Z,4.85
2023-05-19T21:19:02.534Z,4.17
2023-05-19T21:21:31.978Z,5.53
2023-05-19T21:24:00.598Z,6.15
2023-05-19T21:26:28.625Z,4.35
2023-05-19T21:28:56.698Z,9.80
2023-05-19T21:31:24.745Z,7.50
2023-05-19T21:33:52.857Z,5.32
2023-05-19T21:36:23.925Z,4.88
2023-05-19T21:38:52.122Z,6.72
2023-05-19T21:41:20.149Z,5.18
2023-05-19T21:43:48.180Z,4.70
2023-05-19T21:46:16.398Z,7.18
2023-05-19T21:48:44.353Z,5.75
2023-05-19T21:51:12.341Z,5.95
2023-05-19T21:53:41.769Z,5.95
2023-05-19T21:56:09.886Z,7.57
2023-05-19T21:58:37.922Z,4.18
2023-05-19T22:01:06.150Z,6.97
2023-05-19T22:03:34.262Z,7.28
2023-05-19T22:06:02.313Z,9.70
2023-05-19T22:08:30.374Z,7.47
2023-05-19T22:10:58.610Z,6.22
2023-05-19T22:13:26.621Z,4.90
2023-05-19T22:15:54.733Z,8.65
2023-05-19T22:18:22.493Z,5.05
2023-05-19T22:20:50.518Z,4.80
2023-05-19T22:23:18.476Z,8.32
2023-05-19T22:25:46.752Z,6.60
2023-05-19T22:28:14.725Z,6.07
2023-05-19T22:30:42.944Z,7.18
2023-05-19T22:33:12.491Z,6.90
2023-05-19T22:35:40.503Z,11.75
2023-05-19T22:38:10.496Z,7.45
2023-05-19T22:40:39.269Z,5.53
2023-05-19T22:43:07.219Z,6.30
2023-05-19T22:45:37.093Z,7.07
2023-05-19T22:48:05.559Z,8.68
2023-05-19T22:50:33.365Z,5.38
2023-05-19T22:53:01.514Z,6.63
2023-05-19T22:55:29.281Z,6.28
2023-05-19T22:57:57.374Z,5.17
2023-05-19T23:00:25.377Z,6.50
2023-05-19T23:02:53.444Z,6.85
2023-05-19T23:05:21.528Z,5.88
2023-05-19T23:07:49.651Z,7.65
2023-05-19T23:10:17.778Z,6.23
2023-05-19T23:12:45.948Z,5.32
2023-05-19T23:15:13.918Z,7.90
2023-05-19T23:17:41.931Z,6.82
2023-05-19T23:20:10.833Z,5.70
2023-05-19T23:22:39.147Z,5.33
2023-05-19T23:25:08.266Z,5.18
2023-05-19T23:27:36.824Z,8.10
2023-05-19T23:30:05.379Z,5.25
2023-05-19T23:32:33.471Z,5.97
2023-05-19T23:35:14.903Z,6.37
2023-05-19T23:37:43.345Z,7.55
2023-05-19T23:40:11.851Z,7.45
2023-05-19T23:42:40.108Z,7.05
2023-05-19T23:45:08.815Z,4.88
2023-05-19T23:47:37.327Z,7.53
2023-05-19T23:50:05.524Z,5.75
2023-05-19T23:52:33.929Z,7.70
2023-05-19T23:55:03.738Z,6.88
2023-05-19T23:57:31.602Z,5.55
2023-05-19T23:59:59.696Z,6.53
